sensor_id;sensor_type;location;lat;lon;timestamp;pressure;altitude;pressure_sealevel;temperature;humidity
20622;BME280;10470;42.670;23.354;2023-03-01T00:00:39;95279.50;;;7.32;100.00
20622;BME280;10470;42.670;23.354;2023-03-01T00:03:05;95284.75;;;7.42;100.00
20622;BME280;10470;42.670;23.354;2023-03-01T00:05:31;95273.44;;;7.24;100.00
20622;BME280;10470;42.670;23.354;2023-03-01T00:07:57;95271.19;;;7.42;100.00
20622;BME280;10470;42.670;23.354;2023-03-01T00:10:23;95272.03;;;7.39;100.00
20622;BME280;10470;42.670;23.354;2023-03-01T00:12:48;95274.56;;;7.27;100.00
20622;BME280;10470;42.670;23.354;2023-03-01T00:15:14;95268.59;;;7.35;100.00
20622;BME280;10470;42.670;23.354;2023-03-01T00:17:39;95264.38;;;7.11;100.00
20622;BME280;10470;42.670;23.354;2023-03-01T00:20:05;95252.34;;;7.12;100.00
20622;BME280;10470;42.670;23.354;2023-03-01T00:22:36;95255.81;;;7.12;100.00
20622;BME280;10470;42.670;23.354;2023-03-01T00:25:02;95239.63;;;7.09;100.00
20622;BME280;10470;42.670;23.354;2023-03-01T00:27:27;95237.03;;;7.02;100.00
20622;BME280;10470;42.670;23.354;2023-03-01T00:29:52;95235.44;;;7.04;100.00
20622;BME280;10470;42.670;23.354;2023-03-01T00:32:18;95232.44;;;6.98;100.00
20622;BME280;10470;42.670;23.354;2023-03-01T00:34:43;95234.25;;;6.82;100.00
20622;BME280;10470;42.670;23.354;2023-03-01T00:37:22;95237.44;;;7.00;100.00
20622;BME280;10470;42.670;23.354;2023-03-01T00:39:48;95228.72;;;6.89;100.00
20622;BME280;10470;42.670;23.354;2023-03-01T00:42:13;95224.78;;;6.93;100.00
20622;BME280;10470;42.670;23.354;2023-03-01T00:44:39;95225.16;;;6.95;100.00
20622;BME280;10470;42.670;23.354;2023-03-01T00:47:04;95228.00;;;6.85;100.00
20622;BME280;10470;42.670;23.354;2023-03-01T00:49:30;95226.41;;;6.87;100.00
20622;BME280;10470;42.670;23.354;2023-03-01T00:51:55;95229.38;;;6.73;100.00
20622;BME280;10470;42.670;23.354;2023-03-01T00:54:21;95230.31;;;6.86;100.00
20622;BME280;10470;42.670;23.354;2023-03-01T00:56:46;95230.03;;;6.81;100.00
20622;BME280;10470;42.670;23.354;2023-03-01T00:59:12;95222.53;;;6.65;100.00
20622;BME280;10470;42.670;23.354;2023-03-01T01:01:37;95225.72;;;6.83;100.00
20622;BME280;10470;42.670;23.354;2023-03-01T01:04:06;95230.25;;;6.90;100.00
20622;BME280;10470;42.670;23.354;2023-03-01T01:08:57;95223.84;;;6.80;100.00
20622;BME280;10470;42.670;23.354;2023-03-01T01:11:27;95231.38;;;6.69;100.00
20622;BME280;10470;42.670;23.354;2023-03-01T01:13:52;95224.06;;;6.89;100.00
20622;BME280;10470;42.670;23.354;2023-03-01T01:16:20;95235.03;;;6.82;100.00
20622;BME280;10470;42.670;23.354;2023-03-01T01:18:46;95232.63;;;6.88;100.00
20622;BME280;10470;42.670;23.354;2023-03-01T01:21:14;95223.41;;;6.82;100.00
20622;BME280;10470;42.670;23.354;2023-03-01T01:23:41;95227.44;;;6.73;100.00
20622;BME280;10470;42.670;23.354;2023-03-01T01:26:13;95204.47;;;6.58;100.00
20622;BME280;10470;42.670;23.354;2023-03-01T01:28:38;95222.94;;;6.63;100.00
20622;BME280;10470;42.670;23.354;2023-03-01T01:31:05;95223.31;;;6.65;100.00
20622;BME280;10470;42.670;23.354;2023-03-01T01:33:30;95218.53;;;6.73;100.00
20622;BME280;10470;42.670;23.354;2023-03-01T01:35:56;95229.09;;;6.91;100.00
20622;BME280;10470;42.670;23.354;2023-03-01T01:38:21;95240.78;;;6.84;100.00
20622;BME280;10470;42.670;23.354;2023-03-01T01:40:48;95250.16;;;6.79;100.00
20622;BME280;10470;42.670;23.354;2023-03-01T01:43:38;95243.31;;;6.71;100.00
20622;BME280;10470;42.670;23.354;2023-03-01T01:46:31;95247.13;;;6.74;100.00
20622;BME280;10470;42.670;23.354;2023-03-01T01:49:00;95247.56;;;6.72;100.00
20622;BME280;10470;42.670;23.354;2023-03-01T01:51:37;95242.75;;;6.84;100.00
20622;BME280;10470;42.670;23.354;2023-03-01T01:54:10;95241.50;;;6.88;100.00
20622;BME280;10470;42.670;23.354;2023-03-01T01:56:40;95222.00;;;6.73;100.00
20622;BME280;10470;42.670;23.354;2023-03-01T01:59:06;95234.78;;;6.73;100.00
20622;BME280;10470;42.670;23.354;2023-03-01T02:01:31;95226.78;;;6.89;100.00
20622;BME280;10470;42.670;23.354;2023-03-01T02:03:57;95233.56;;;6.77;100.00
20622;BME280;10470;42.670;23.354;2023-03-01T02:06:29;95229.97;;;6.84;100.00
20622;BME280;10470;42.670;23.354;2023-03-01T02:09:07;95226.03;;;6.89;100.00
20622;BME280;10470;42.670;23.354;2023-03-01T02:11:36;95219.59;;;6.79;100.00
20622;BME280;10470;42.670;23.354;2023-03-01T02:14:03;95228.31;;;6.67;100.00
20622;BME280;10470;42.670;23.354;2023-03-01T02:16:29;95219.13;;;6.84;100.00
20622;BME280;10470;42.670;23.354;2023-03-01T02:18:56;95207.47;;;6.87;100.00
20622;BME280;10470;42.670;23.354;2023-03-01T02:27:05;95226.88;;;6.82;100.00
20622;BME280;10470;42.670;23.354;2023-03-01T02:29:31;95220.25;;;6.87;100.00
20622;BME280;10470;42.670;23.354;2023-03-01T02:31:59;95220.13;;;6.70;100.00
20622;BME280;10470;42.670;23.354;2023-03-01T02:34:26;95220.69;;;6.85;100.00
20622;BME280;10470;42.670;23.354;2023-03-01T02:37:01;95229.28;;;6.80;100.00
20622;BME280;10470;42.670;23.354;2023-03-01T02:39:48;95233.78;;;6.87;100.00
20622;BME280;10470;42.670;23.354;2023-03-01T02:42:20;95238.97;;;7.01;100.00
20622;BME280;10470;42.670;23.354;2023-03-01T02:44:49;95230.06;;;6.77;100.00
20622;BME280;10470;42.670;23.354;2023-03-01T02:47:15;95231.16;;;6.83;100.00
20622;BME280;10470;42.670;23.354;2023-03-01T02:49:40;95227.72;;;6.79;100.00
20622;BME280;10470;42.670;23.354;2023-03-01T02:57:12;95220.88;;;6.71;100.00
20622;BME280;10470;42.670;23.354;2023-03-01T02:59:38;95220.50;;;6.72;100.00
20622;BME280;10470;42.670;23.354;2023-03-01T03:02:26;95219.72;;;6.72;100.00
20622;BME280;10470;42.670;23.354;2023-03-01T03:05:19;95229.75;;;6.75;100.00
20622;BME280;10470;42.670;23.354;2023-03-01T03:07:47;95231.44;;;6.65;100.00
20622;BME280;10470;42.670;23.354;2023-03-01T03:10:17;95212.47;;;6.65;100.00
20622;BME280;10470;42.670;23.354;2023-03-01T03:12:55;95219.22;;;6.77;100.00
20622;BME280;10470;42.670;23.354;2023-03-01T03:15:22;95215.13;;;6.69;100.00
20622;BME280;10470;42.670;23.354;2023-03-01T03:17:49;95215.00;;;6.76;100.00
20622;BME280;10470;42.670;23.354;2023-03-01T03:20:16;95226.00;;;6.65;100.00
20622;BME280;10470;42.670;23.354;2023-03-01T03:22:45;95232.25;;;6.62;100.00
20622;BME280;10470;42.670;23.354;2023-03-01T03:25:12;95219.53;;;6.59;100.00
20622;BME280;10470;42.670;23.354;2023-03-01T03:27:42;95236.19;;;6.57;100.00
20622;BME280;10470;42.670;23.354;2023-03-01T03:30:11;95238.59;;;6.52;100.00
20622;BME280;10470;42.670;23.354;2023-03-01T03:32:41;95227.97;;;6.65;100.00
20622;BME280;10470;42.670;23.354;2023-03-01T03:35:09;95223.03;;;6.56;100.00
20622;BME280;10470;42.670;23.354;2023-03-01T03:37:39;95229.75;;;6.48;100.00
20622;BME280;10470;42.670;23.354;2023-03-01T03:40:23;95231.59;;;6.54;100.00
20622;BME280;10470;42.670;23.354;2023-03-01T03:42:49;95227.50;;;6.43;100.00
20622;BME280;10470;42.670;23.354;2023-03-01T03:45:16;95235.31;;;6.37;100.00
20622;BME280;10470;42.670;23.354;2023-03-01T03:47:41;95231.78;;;6.40;100.00
20622;BME280;10470;42.670;23.354;2023-03-01T03:50:08;95232.16;;;6.42;100.00
20622;BME280;10470;42.670;23.354;2023-03-01T03:52:34;95237.47;;;6.49;100.00
20622;BME280;10470;42.670;23.354;2023-03-01T03:54:59;95231.94;;;6.56;100.00
20622;BME280;10470;42.670;23.354;2023-03-01T03:57:25;95239.88;;;6.44;100.00
20622;BME280;10470;42.670;23.354;2023-03-01T03:59:50;95231.81;;;6.64;100.00
20622;BME280;10470;42.670;23.354;2023-03-01T04:02:16;95239.03;;;6.74;100.00
20622;BME280;10470;42.670;23.354;2023-03-01T04:04:47;95246.75;;;6.48;100.00
20622;BME280;10470;42.670;23.354;2023-03-01T04:07:15;95241.19;;;6.59;100.00
20622;BME280;10470;42.670;23.354;2023-03-01T04:09:42;95238.81;;;6.61;100.00
20622;BME280;10470;42.670;23.354;2023-03-01T04:12:08;95239.19;;;6.63;100.00
20622;BME280;10470;42.670;23.354;2023-03-01T04:14:34;95245.03;;;6.62;100.00
20622;BME280;10470;42.670;23.354;2023-03-01T04:16:59;95245.38;;;6.64;100.00
20622;BME280;10470;42.670;23.354;2023-03-01T04:19:24;95252.81;;;6.56;100.00
20622;BME280;10470;42.670;23.354;2023-03-01T04:21:52;95244.09;;;6.72;100.00
20622;BME280;10470;42.670;23.354;2023-03-01T04:24:18;95242.81;;;6.53;100.00
20622;BME280;10470;42.670;23.354;2023-03-01T04:26:44;95243.56;;;6.53;100.00
20622;BME280;10470;42.670;23.354;2023-03-01T04:29:09;95241.69;;;6.50;100.00
20622;BME280;10470;42.670;23.354;2023-03-01T04:31:35;95244.03;;;6.48;100.00
20622;BME280;10470;42.670;23.354;2023-03-01T04:34:00;95243.91;;;6.59;100.00
20622;BME280;10470;42.670;23.354;2023-03-01T04:36:28;95247.47;;;6.52;100.00
20622;BME280;10470;42.670;23.354;2023-03-01T04:38:55;95243.38;;;6.68;100.00
20622;BME280;10470;42.670;23.354;2023-03-01T04:41:22;95235.91;;;6.48;100.00
20622;BME280;10470;42.670;23.354;2023-03-01T04:43:49;95232.44;;;6.48;100.00
20622;BME280;10470;42.670;23.354;2023-03-01T04:46:17;95223.47;;;6.54;100.00
20622;BME280;10470;42.670;23.354;2023-03-01T04:48:44;95241.72;;;6.74;100.00
20622;BME280;10470;42.670;23.354;2023-03-01T04:51:10;95241.69;;;6.50;100.00
20622;BME280;10470;42.670;23.354;2023-03-01T04:53:39;95238.53;;;6.55;100.00
20622;BME280;10470;42.670;23.354;2023-03-01T04:56:05;95229.00;;;6.47;100.00
20622;BME280;10470;42.670;23.354;2023-03-01T04:58:31;95222.75;;;6.23;100.00
20622;BME280;10470;42.670;23.354;2023-03-01T05:00:57;95231.28;;;6.22;100.00
20622;BME280;10470;42.670;23.354;2023-03-01T05:03:22;95229.84;;;6.41;100.00
20622;BME280;10470;42.670;23.354;2023-03-01T05:05:49;95231.78;;;6.40;100.00
20622;BME280;10470;42.670;23.354;2023-03-01T05:08:16;95229.97;;;6.33;100.00
20622;BME280;10470;42.670;23.354;2023-03-01T05:10:50;95247.31;;;6.36;100.00
20622;BME280;10470;42.670;23.354;2023-03-01T05:13:17;95237.16;;;6.44;100.00
20622;BME280;10470;42.670;23.354;2023-03-01T05:15:54;95239.75;;;6.51;100.00
20622;BME280;10470;42.670;23.354;2023-03-01T05:18:20;95236.84;;;6.38;100.00
20622;BME280;10470;42.670;23.354;2023-03-01T05:20:46;95235.88;;;6.25;100.00
20622;BME280;10470;42.670;23.354;2023-03-01T05:23:12;95246.66;;;6.55;100.00
20622;BME280;10470;42.670;23.354;2023-03-01T05:25:38;95241.53;;;6.61;100.00
20622;BME280;10470;42.670;23.354;2023-03-01T05:28:06;95240.94;;;6.50;100.00
20622;BME280;10470;42.670;23.354;2023-03-01T05:30:35;95240.47;;;6.55;100.00
20622;BME280;10470;42.670;23.354;2023-03-01T05:33:01;95239.28;;;6.56;100.00
20622;BME280;10470;42.670;23.354;2023-03-01T05:35:27;95242.84;;;6.76;100.00
20622;BME280;10470;42.670;23.354;2023-03-01T05:37:53;95239.25;;;6.60;100.00
20622;BME280;10470;42.670;23.354;2023-03-01T05:40:20;95243.44;;;6.64;100.00
20622;BME280;10470;42.670;23.354;2023-03-01T05:42:48;95245.81;;;6.59;100.00
20622;BME280;10470;42.670;23.354;2023-03-01T05:45:15;95249.53;;;6.72;100.00
20622;BME280;10470;42.670;23.354;2023-03-01T05:47:42;95248.06;;;6.64;100.00
20622;BME280;10470;42.670;23.354;2023-03-01T05:50:20;95236.75;;;6.45;100.00
20622;BME280;10470;42.670;23.354;2023-03-01T05:52:48;95252.25;;;6.68;100.00
20622;BME280;10470;42.670;23.354;2023-03-01T05:55:16;95253.56;;;6.60;100.00
20622;BME280;10470;42.670;23.354;2023-03-01T05:57:42;95265.88;;;6.65;100.00
20622;BME280;10470;42.670;23.354;2023-03-01T06:00:08;95262.41;;;6.64;100.00
20622;BME280;10470;42.670;23.354;2023-03-01T06:02:34;95262.63;;;6.73;100.00
20622;BME280;10470;42.670;23.354;2023-03-01T06:05:00;95268.50;;;6.68;100.00
20622;BME280;10470;42.670;23.354;2023-03-01T06:07:25;95275.28;;;6.56;100.00
20622;BME280;10470;42.670;23.354;2023-03-01T06:09:51;95279.19;;;6.52;100.00
20622;BME280;10470;42.670;23.354;2023-03-01T06:12:16;95278.59;;;6.68;100.00
20622;BME280;10470;42.670;23.354;2023-03-01T06:14:42;95275.22;;;6.60;100.00
20622;BME280;10470;42.670;23.354;2023-03-01T06:17:08;95285.75;;;6.54;100.00
20622;BME280;10470;42.670;23.354;2023-03-01T06:19:33;95287.25;;;6.55;100.00
20622;BME280;10470;42.670;23.354;2023-03-01T06:21:59;95288.69;;;6.37;100.00
20622;BME280;10470;42.670;23.354;2023-03-01T06:24:24;95283.59;;;6.69;100.00
20622;BME280;10470;42.670;23.354;2023-03-01T06:26:50;95294.56;;;6.86;100.00
20622;BME280;10470;42.670;23.354;2023-03-01T06:29:15;95286.41;;;6.62;100.00
20622;BME280;10470;42.670;23.354;2023-03-01T06:31:40;95280.81;;;6.73;100.00
20622;BME280;10470;42.670;23.354;2023-03-01T06:34:06;95282.34;;;6.74;100.00
20622;BME280;10470;42.670;23.354;2023-03-01T06:36:31;95289.00;;;6.69;100.00
20622;BME280;10470;42.670;23.354;2023-03-01T06:38:57;95286.88;;;6.57;100.00
20622;BME280;10470;42.670;23.354;2023-03-01T06:41:22;95285.75;;;6.54;100.00
20622;BME280;10470;42.670;23.354;2023-03-01T06:43:47;95291.75;;;6.66;100.00
20622;BME280;10470;42.670;23.354;2023-03-01T06:46:13;95292.50;;;6.66;100.00
20622;BME280;10470;42.670;23.354;2023-03-01T06:48:38;95284.81;;;6.65;100.00
20622;BME280;10470;42.670;23.354;2023-03-01T06:51:04;95292.56;;;6.63;100.00
20622;BME280;10470;42.670;23.354;2023-03-01T06:53:30;95291.09;;;6.85;100.00
20622;BME280;10470;42.670;23.354;2023-03-01T06:55:56;95284.34;;;6.70;100.00
20622;BME280;10470;42.670;23.354;2023-03-01T06:58:22;95289.84;;;6.90;100.00
20622;BME280;10470;42.670;23.354;2023-03-01T07:00:48;95290.63;;;6.63;100.00
20622;BME280;10470;42.670;23.354;2023-03-01T07:03:14;95298.84;;;6.83;100.00
20622;BME280;10470;42.670;23.354;2023-03-01T07:05:39;95294.22;;;6.56;100.00
20622;BME280;10470;42.670;23.354;2023-03-01T07:08:05;95299.03;;;6.72;100.00
20622;BME280;10470;42.670;23.354;2023-03-01T07:10:30;95299.69;;;6.80;100.00
20622;BME280;10470;42.670;23.354;2023-03-01T07:12:57;95292.56;;;6.90;100.00
20622;BME280;10470;42.670;23.354;2023-03-01T07:15:23;95290.63;;;6.90;100.00
20622;BME280;10470;42.670;23.354;2023-03-01T07:17:48;95289.53;;;6.84;100.00
20622;BME280;10470;42.670;23.354;2023-03-01T07:20:16;95293.16;;;6.77;100.00
20622;BME280;10470;42.670;23.354;2023-03-01T07:22:42;95295.81;;;7.05;100.00
20622;BME280;10470;42.670;23.354;2023-03-01T07:25:09;95288.09;;;7.03;100.00
20622;BME280;10470;42.670;23.354;2023-03-01T07:27:36;95292.97;;;6.88;100.00
20622;BME280;10470;42.670;23.354;2023-03-01T07:30:02;95292.34;;;7.04;100.00
20622;BME280;10470;42.670;23.354;2023-03-01T07:32:28;95286.44;;;6.86;100.00
20622;BME280;10470;42.670;23.354;2023-03-01T07:34:53;95284.03;;;6.91;100.00
20622;BME280;10470;42.670;23.354;2023-03-01T07:37:19;95274.03;;;6.88;100.00
20622;BME280;10470;42.670;23.354;2023-03-01T07:39:45;95283.44;;;7.04;100.00
20622;BME280;10470;42.670;23.354;2023-03-01T07:42:11;95284.44;;;7.13;100.00
20622;BME280;10470;42.670;23.354;2023-03-01T07:44:36;95281.38;;;7.35;100.00
20622;BME280;10470;42.670;23.354;2023-03-01T07:47:03;95288.50;;;7.25;100.00
20622;BME280;10470;42.670;23.354;2023-03-01T07:49:28;95278.78;;;7.28;100.00
20622;BME280;10470;42.670;23.354;2023-03-01T07:51:54;95285.88;;;7.45;100.00
20622;BME280;10470;42.670;23.354;2023-03-01T07:54:20;95279.44;;;7.35;100.00
20622;BME280;10470;42.670;23.354;2023-03-01T07:56:45;95279.19;;;7.26;100.00
20622;BME280;10470;42.670;23.354;2023-03-01T07:59:11;95271.78;;;7.30;100.00
20622;BME280;10470;42.670;23.354;2023-03-01T08:01:36;95269.94;;;7.23;100.00
20622;BME280;10470;42.670;23.354;2023-03-01T08:04:01;95275.00;;;7.45;100.00
20622;BME280;10470;42.670;23.354;2023-03-01T08:06:27;95277.06;;;7.61;100.00
20622;BME280;10470;42.670;23.354;2023-03-01T08:08:53;95279.56;;;7.72;100.00
20622;BME280;10470;42.670;23.354;2023-03-01T08:11:20;95268.94;;;7.81;100.00
20622;BME280;10470;42.670;23.354;2023-03-01T08:13:47;95274.66;;;7.43;100.00
20622;BME280;10470;42.670;23.354;2023-03-01T08:16:15;95274.22;;;7.68;100.00
20622;BME280;10470;42.670;23.354;2023-03-01T08:18:41;95263.03;;;7.86;100.00
20622;BME280;10470;42.670;23.354;2023-03-01T08:21:12;95274.44;;;7.97;100.00
20622;BME280;10470;42.670;23.354;2023-03-01T08:23:39;95274.47;;;7.94;100.00
20622;BME280;10470;42.670;23.354;2023-03-01T08:26:10;95270.66;;;7.91;100.00
20622;BME280;10470;42.670;23.354;2023-03-01T08:28:37;95275.97;;;7.55;100.00
20622;BME280;10470;42.670;23.354;2023-03-01T08:31:03;95280.75;;;7.71;100.00
20622;BME280;10470;42.670;23.354;2023-03-01T08:33:29;95271.34;;;7.75;100.00
20622;BME280;10470;42.670;23.354;2023-03-01T08:36:02;95268.91;;;7.61;100.00
20622;BME280;10470;42.670;23.354;2023-03-01T08:38:28;95270.66;;;7.91;100.00
20622;BME280;10470;42.670;23.354;2023-03-01T08:40:54;95271.44;;;7.92;100.00
20622;BME280;10470;42.670;23.354;2023-03-01T08:43:19;95271.50;;;7.88;100.00
20622;BME280;10470;42.670;23.354;2023-03-01T08:45:44;95272.91;;;7.76;100.00
20622;BME280;10470;42.670;23.354;2023-03-01T08:48:10;95277.28;;;7.90;100.00
20622;BME280;10470;42.670;23.354;2023-03-01T08:50:35;95279.91;;;7.94;100.00
20622;BME280;10470;42.670;23.354;2023-03-01T08:53:01;95282.22;;;7.95;100.00
20622;BME280;10470;42.670;23.354;2023-03-01T08:55:26;95287.97;;;7.77;100.00
20622;BME280;10470;42.670;23.354;2023-03-01T08:57:51;95280.81;;;7.87;100.00
20622;BME280;10470;42.670;23.354;2023-03-01T09:00:17;95286.88;;;7.75;100.00
20622;BME280;10470;42.670;23.354;2023-03-01T09:02:43;95288.66;;;8.01;100.00
20622;BME280;10470;42.670;23.354;2023-03-01T09:05:08;95286.31;;;8.03;100.00
20622;BME280;10470;42.670;23.354;2023-03-01T09:07:34;95281.00;;;8.16;100.00
20622;BME280;10470;42.670;23.354;2023-03-01T09:09:59;95280.53;;;8.01;100.00
20622;BME280;10470;42.670;23.354;2023-03-01T09:12:25;95286.38;;;8.20;100.00
20622;BME280;10470;42.670;23.354;2023-03-01T09:14:50;95284.16;;;8.15;100.00
20622;BME280;10470;42.670;23.354;2023-03-01T09:17:16;95290.09;;;8.09;100.00
20622;BME280;10470;42.670;23.354;2023-03-01T09:19:41;95285.41;;;8.10;100.00
20622;BME280;10470;42.670;23.354;2023-03-01T09:22:07;95283.31;;;7.98;100.00
20622;BME280;10470;42.670;23.354;2023-03-01T09:24:32;95282.41;;;8.24;100.00
20622;BME280;10470;42.670;23.354;2023-03-01T09:26:57;95278.56;;;8.22;100.00
20622;BME280;10470;42.670;23.354;2023-03-01T09:29:23;95279.94;;;8.50;100.00
20622;BME280;10470;42.670;23.354;2023-03-01T09:31:49;95277.06;;;8.41;100.00
20622;BME280;10470;42.670;23.354;2023-03-01T09:34:14;95285.06;;;8.28;100.00
20622;BME280;10470;42.670;23.354;2023-03-01T09:36:44;95293.25;;;8.24;100.00
20622;BME280;10470;42.670;23.354;2023-03-01T09:39:09;95276.91;;;8.28;100.00
20622;BME280;10470;42.670;23.354;2023-03-01T09:41:44;95279.00;;;8.20;100.00
20622;BME280;10470;42.670;23.354;2023-03-01T09:44:44;95273.00;;;8.29;100.00
20622;BME280;10470;42.670;23.354;2023-03-01T09:47:17;95263.75;;;8.26;100.00
20622;BME280;10470;42.670;23.354;2023-03-01T09:49:55;95247.31;;;8.53;100.00
20622;BME280;10470;42.670;23.354;2023-03-01T09:54:55;95264.44;;;8.30;100.00
20622;BME280;10470;42.670;23.354;2023-03-01T09:57:30;95270.66;;;8.67;100.00
20622;BME280;10470;42.670;23.354;2023-03-01T10:00:26;95262.53;;;8.27;100.00
20622;BME280;10470;42.670;23.354;2023-03-01T10:03:27;95253.50;;;8.34;100.00
20622;BME280;10470;42.670;23.354;2023-03-01T10:06:13;95255.38;;;8.73;100.00
20622;BME280;10470;42.670;23.354;2023-03-01T10:08:53;95244.84;;;8.75;100.00
20622;BME280;10470;42.670;23.354;2023-03-01T10:11:22;95249.84;;;8.61;100.00
20622;BME280;10470;42.670;23.354;2023-03-01T10:13:59;95251.63;;;8.84;100.00
20622;BME280;10470;42.670;23.354;2023-03-01T10:16:42;95247.44;;;8.46;100.00
20622;BME280;10470;42.670;23.354;2023-03-01T10:19:20;95250.59;;;8.61;100.00
20622;BME280;10470;42.670;23.354;2023-03-01T10:21:49;95253.50;;;8.70;100.00
20622;BME280;10470;42.670;23.354;2023-03-01T10:24:17;95252.78;;;8.50;100.00
20622;BME280;10470;42.670;23.354;2023-03-01T10:26:56;95232.63;;;8.67;100.00
20622;BME280;10470;42.670;23.354;2023-03-01T10:29:31;95233.69;;;9.03;100.00
20622;BME280;10470;42.670;23.354;2023-03-01T10:31:59;95221.56;;;9.07;100.00
20622;BME280;10470;42.670;23.354;2023-03-01T10:34:31;95229.13;;;8.83;100.00
20622;BME280;10470;42.670;23.354;2023-03-01T10:37:04;95230.31;;;8.99;100.00
20622;BME280;10470;42.670;23.354;2023-03-01T10:39:34;95228.28;;;9.03;100.00
20622;BME280;10470;42.670;23.354;2023-03-01T10:42:02;95227.16;;;9.00;100.00
20622;BME280;10470;42.670;23.354;2023-03-01T10:47:17;95220.47;;;9.21;100.00
20622;BME280;10470;42.670;23.354;2023-03-01T10:50:05;95226.50;;;9.58;100.00
20622;BME280;10470;42.670;23.354;2023-03-01T10:52:36;95195.47;;;9.26;100.00
20622;BME280;10470;42.670;23.354;2023-03-01T10:55:24;95223.66;;;9.32;100.00
20622;BME280;10470;42.670;23.354;2023-03-01T10:58:26;95221.69;;;9.33;100.00
20622;BME280;10470;42.670;23.354;2023-03-01T11:00:54;95218.22;;;9.61;100.00
20622;BME280;10470;42.670;23.354;2023-03-01T11:03:31;95217.06;;;9.46;100.00
20622;BME280;10470;42.670;23.354;2023-03-01T11:08:44;95215.25;;;9.85;100.00
20622;BME280;10470;42.670;23.354;2023-03-01T11:13:49;95232.31;;;9.73;100.00
20622;BME280;10470;42.670;23.354;2023-03-01T11:16:25;95231.22;;;9.83;100.00
20622;BME280;10470;42.670;23.354;2023-03-01T11:24:40;95217.63;;;9.25;100.00
20622;BME280;10470;42.670;23.354;2023-03-01T11:27:17;95223.59;;;9.49;100.00
20622;BME280;10470;42.670;23.354;2023-03-01T11:29:51;95220.78;;;9.23;100.00
20622;BME280;10470;42.670;23.354;2023-03-01T11:32:19;95217.84;;;9.47;100.00
20622;BME280;10470;42.670;23.354;2023-03-01T11:35:19;95219.16;;;9.26;100.00
20622;BME280;10470;42.670;23.354;2023-03-01T11:40:24;95210.28;;;9.38;100.00
20622;BME280;10470;42.670;23.354;2023-03-01T11:43:09;95208.13;;;9.16;100.00
20622;BME280;10470;42.670;23.354;2023-03-01T11:50:48;95193.81;;;9.45;100.00
20622;BME280;10470;42.670;23.354;2023-03-01T11:58:27;95174.34;;;9.59;100.00
20622;BME280;10470;42.670;23.354;2023-03-01T12:06:46;95189.66;;;9.82;100.00
20622;BME280;10470;42.670;23.354;2023-03-01T12:20:22;95175.06;;;11.04;100.00
20622;BME280;10470;42.670;23.354;2023-03-01T12:50:20;95154.53;;;10.26;100.00
20622;BME280;10470;42.670;23.354;2023-03-01T12:52:56;95161.00;;;9.78;100.00
20622;BME280;10470;42.670;23.354;2023-03-01T12:55:33;95152.09;;;9.90;100.00
20622;BME280;10470;42.670;23.354;2023-03-01T13:00:45;95157.22;;;9.88;100.00
20622;BME280;10470;42.670;23.354;2023-03-01T13:06:12;95156.16;;;10.11;100.00
20622;BME280;10470;42.670;23.354;2023-03-01T13:08:49;95153.84;;;9.84;100.00
20622;BME280;10470;42.670;23.354;2023-03-01T13:11:23;95154.19;;;9.86;100.00
20622;BME280;10470;42.670;23.354;2023-03-01T13:13:49;95158.88;;;9.98;100.00
20622;BME280;10470;42.670;23.354;2023-03-01T13:19:18;95159.19;;;9.88;100.00
20622;BME280;10470;42.670;23.354;2023-03-01T13:21:45;95157.50;;;9.65;100.00
20622;BME280;10470;42.670;23.354;2023-03-01T13:27:09;95160.56;;;9.67;100.00
20622;BME280;10470;42.670;23.354;2023-03-01T13:29:50;95162.47;;;9.95;100.00
20622;BME280;10470;42.670;23.354;2023-03-01T13:32:32;95165.38;;;9.88;100.00
20622;BME280;10470;42.670;23.354;2023-03-01T13:34:58;95155.38;;;9.98;100.00
20622;BME280;10470;42.670;23.354;2023-03-01T13:37:35;95156.47;;;10.00;100.00
20622;BME280;10470;42.670;23.354;2023-03-01T13:42:54;95156.06;;;10.15;100.00
20622;BME280;10470;42.670;23.354;2023-03-01T13:45:24;95156.34;;;9.78;100.00
20622;BME280;10470;42.670;23.354;2023-03-01T13:48:00;95148.50;;;9.38;100.00
20622;BME280;10470;42.670;23.354;2023-03-01T13:50:29;95152.50;;;9.63;100.00
20622;BME280;10470;42.670;23.354;2023-03-01T13:53:04;95142.94;;;9.71;100.00
20622;BME280;10470;42.670;23.354;2023-03-01T13:55:42;95146.75;;;9.74;100.00
20622;BME280;10470;42.670;23.354;2023-03-01T13:58:26;95147.97;;;9.44;100.00
20622;BME280;10470;42.670;23.354;2023-03-01T14:01:22;95148.38;;;9.71;100.00
20622;BME280;10470;42.670;23.354;2023-03-01T14:03:48;95143.84;;;9.94;100.00
20622;BME280;10470;42.670;23.354;2023-03-01T14:06:16;95143.88;;;10.06;100.00
20622;BME280;10470;42.670;23.354;2023-03-01T14:08:46;95145.38;;;9.95;100.00
20622;BME280;10470;42.670;23.354;2023-03-01T14:14:33;95148.94;;;9.79;100.00
20622;BME280;10470;42.670;23.354;2023-03-01T14:19:37;95138.94;;;9.47;100.00
20622;BME280;10470;42.670;23.354;2023-03-01T14:22:22;95138.25;;;9.30;100.00
20622;BME280;10470;42.670;23.354;2023-03-01T14:24:56;95140.09;;;9.62;100.00
20622;BME280;10470;42.670;23.354;2023-03-01T14:27:28;95142.84;;;9.88;100.00
20622;BME280;10470;42.670;23.354;2023-03-01T14:30:00;95139.03;;;9.85;100.00
20622;BME280;10470;42.670;23.354;2023-03-01T14:32:29;95141.13;;;9.52;100.00
20622;BME280;10470;42.670;23.354;2023-03-01T14:34:57;95132.38;;;9.60;100.00
20622;BME280;10470;42.670;23.354;2023-03-01T14:39:52;95138.16;;;9.33;100.00
20622;BME280;10470;42.670;23.354;2023-03-01T14:42:19;95131.06;;;9.23;100.00
20622;BME280;10470;42.670;23.354;2023-03-01T14:44:48;95139.06;;;9.14;100.00
20622;BME280;10470;42.670;23.354;2023-03-01T14:47:20;95133.88;;;9.19;100.00
20622;BME280;10470;42.670;23.354;2023-03-01T14:49:53;95132.72;;;9.04;100.00